Terminal Aerodrome Forecast
Issued by NWS Des Moines, IA

Home | Current Version | Previous Version | Text Only | Print | Product List | Glossary On
Versions: 1 2 3 4 5 6 7 8 9 10 11 12 13 14 15 16 17 18 19 20 21 22 23 24 25 26 27 28 29 30 31 32 33 34 35 36 37 38 39 40
000
FTUS43 KDMX 111134
TAFALO
TAF
KALO 111134Z 1112/1212 32005KT P6SM SKC
     FM111500 VRB04KT P6SM SCT060
     FM112000 18006KT P6SM BKN050 OVC110
     FM120100 18005KT 5SM -SN BKN015 OVC040
     FM120300 19006KT 2SM -SN BKN009 OVC018
     FM120900 29007KT 5SM -SN BKN012 OVC018=

USA.gov is the U.S. government's official web portal to all federal, state and local government web resources and services.